sensor_id;sensor_type;location;lat;lon;timestamp;temperature;humidity
11617;DHT22;5864;52.998;9.068;2023-03-01T00:00:21;1.10;99.90
11617;DHT22;5864;52.998;9.068;2023-03-01T00:03:07;1.10;99.90
11617;DHT22;5864;52.998;9.068;2023-03-01T00:05:54;1.00;99.90
11617;DHT22;5864;52.998;9.068;2023-03-01T00:08:39;1.00;99.90
11617;DHT22;5864;52.998;9.068;2023-03-01T00:11:27;0.90;99.90
11617;DHT22;5864;52.998;9.068;2023-03-01T00:14:13;0.90;99.90
11617;DHT22;5864;52.998;9.068;2023-03-01T00:17:00;1.50;99.90
11617;DHT22;5864;52.998;9.068;2023-03-01T00:19:46;0.70;99.90
11617;DHT22;5864;52.998;9.068;2023-03-01T00:22:33;0.80;99.90
11617;DHT22;5864;52.998;9.068;2023-03-01T00:25:18;0.90;99.90
11617;DHT22;5864;52.998;9.068;2023-03-01T00:28:05;2.70;99.90
11617;DHT22;5864;52.998;9.068;2023-03-01T00:30:50;0.80;99.90
11617;DHT22;5864;52.998;9.068;2023-03-01T00:33:36;0.80;99.90
11617;DHT22;5864;52.998;9.068;2023-03-01T00:36:22;0.80;99.90
11617;DHT22;5864;52.998;9.068;2023-03-01T00:39:11;0.80;99.90
11617;DHT22;5864;52.998;9.068;2023-03-01T00:41:58;0.80;99.90
11617;DHT22;5864;52.998;9.068;2023-03-01T00:44:43;0.90;99.90
11617;DHT22;5864;52.998;9.068;2023-03-01T00:47:28;0.90;99.90
11617;DHT22;5864;52.998;9.068;2023-03-01T00:50:14;0.90;99.90
11617;DHT22;5864;52.998;9.068;2023-03-01T00:53:00;0.80;99.90
11617;DHT22;5864;52.998;9.068;2023-03-01T00:55:47;0.80;99.90
11617;DHT22;5864;52.998;9.068;2023-03-01T00:58:33;0.80;99.90
11617;DHT22;5864;52.998;9.068;2023-03-01T01:01:21;0.80;99.90
11617;DHT22;5864;52.998;9.068;2023-03-01T01:04:09;0.80;99.90
11617;DHT22;5864;52.998;9.068;2023-03-01T01:06:55;0.80;99.90
11617;DHT22;5864;52.998;9.068;2023-03-01T01:09:41;0.80;99.90
11617;DHT22;5864;52.998;9.068;2023-03-01T01:12:28;3.20;99.90
11617;DHT22;5864;52.998;9.068;2023-03-01T01:15:14;0.80;99.90
11617;DHT22;5864;52.998;9.068;2023-03-01T01:18:01;0.70;99.90
11617;DHT22;5864;52.998;9.068;2023-03-01T01:20:46;0.70;99.90
11617;DHT22;5864;52.998;9.068;2023-03-01T01:23:32;2.80;99.90
11617;DHT22;5864;52.998;9.068;2023-03-01T01:26:20;0.60;99.90
11617;DHT22;5864;52.998;9.068;2023-03-01T01:29:07;0.60;99.90
11617;DHT22;5864;52.998;9.068;2023-03-01T01:31:53;0.50;99.90
11617;DHT22;5864;52.998;9.068;2023-03-01T01:34:40;0.40;99.90
11617;DHT22;5864;52.998;9.068;2023-03-01T01:37:25;0.40;99.90
11617;DHT22;5864;52.998;9.068;2023-03-01T01:40:15;2.60;99.90
11617;DHT22;5864;52.998;9.068;2023-03-01T01:43:00;0.30;99.90
11617;DHT22;5864;52.998;9.068;2023-03-01T01:45:48;0.30;99.90
11617;DHT22;5864;52.998;9.068;2023-03-01T01:48:40;0.30;99.90
11617;DHT22;5864;52.998;9.068;2023-03-01T01:51:29;0.30;99.90
11617;DHT22;5864;52.998;9.068;2023-03-01T01:54:25;0.30;99.90
11617;DHT22;5864;52.998;9.068;2023-03-01T01:57:17;0.10;99.90
11617;DHT22;5864;52.998;9.068;2023-03-01T02:00:06;0.10;99.90
11617;DHT22;5864;52.998;9.068;2023-03-01T02:02:57;0.10;99.90
11617;DHT22;5864;52.998;9.068;2023-03-01T02:05:47;0.20;99.90
11617;DHT22;5864;52.998;9.068;2023-03-01T02:08:37;0.20;99.90
11617;DHT22;5864;52.998;9.068;2023-03-01T02:11:24;0.10;99.90
11617;DHT22;5864;52.998;9.068;2023-03-01T02:14:10;2.70;99.90
11617;DHT22;5864;52.998;9.068;2023-03-01T02:16:56;0.10;99.90
11617;DHT22;5864;52.998;9.068;2023-03-01T02:19:54;0.10;99.90
11617;DHT22;5864;52.998;9.068;2023-03-01T02:22:44;0.20;99.90
11617;DHT22;5864;52.998;9.068;2023-03-01T02:25:37;0.20;99.90
11617;DHT22;5864;52.998;9.068;2023-03-01T02:28:30;0.30;99.90
11617;DHT22;5864;52.998;9.068;2023-03-01T02:31:17;0.10;99.90
11617;DHT22;5864;52.998;9.068;2023-03-01T02:34:22;0.00;99.90
11617;DHT22;5864;52.998;9.068;2023-03-01T02:37:15;2.10;99.90
11617;DHT22;5864;52.998;9.068;2023-03-01T02:40:09;1.70;99.90
11617;DHT22;5864;52.998;9.068;2023-03-01T02:42:58;-0.10;99.90
11617;DHT22;5864;52.998;9.068;2023-03-01T02:45:50;-0.20;99.90
11617;DHT22;5864;52.998;9.068;2023-03-01T02:48:41;-0.10;99.90
11617;DHT22;5864;52.998;9.068;2023-03-01T02:51:39;-0.10;99.90
11617;DHT22;5864;52.998;9.068;2023-03-01T02:54:29;-0.10;99.90
11617;DHT22;5864;52.998;9.068;2023-03-01T02:57:17;-0.10;99.90
11617;DHT22;5864;52.998;9.068;2023-03-01T03:00:05;-0.10;99.90
11617;DHT22;5864;52.998;9.068;2023-03-01T03:02:54;0.00;99.90
11617;DHT22;5864;52.998;9.068;2023-03-01T03:05:41;0.00;99.90
11617;DHT22;5864;52.998;9.068;2023-03-01T03:08:27;0.00;99.90
11617;DHT22;5864;52.998;9.068;2023-03-01T03:11:12;0.00;99.90
11617;DHT22;5864;52.998;9.068;2023-03-01T03:13:58;0.00;99.90
11617;DHT22;5864;52.998;9.068;2023-03-01T03:16:45;0.00;99.90
11617;DHT22;5864;52.998;9.068;2023-03-01T03:19:32;0.00;99.90
11617;DHT22;5864;52.998;9.068;2023-03-01T03:22:18;0.00;99.90
11617;DHT22;5864;52.998;9.068;2023-03-01T03:25:03;0.10;99.90
11617;DHT22;5864;52.998;9.068;2023-03-01T03:27:51;0.00;99.90
11617;DHT22;5864;52.998;9.068;2023-03-01T03:30:41;0.00;99.90
11617;DHT22;5864;52.998;9.068;2023-03-01T03:33:26;0.00;99.90
11617;DHT22;5864;52.998;9.068;2023-03-01T03:36:16;-0.10;99.90
11617;DHT22;5864;52.998;9.068;2023-03-01T03:39:02;-0.10;99.90
11617;DHT22;5864;52.998;9.068;2023-03-01T03:41:49;-0.20;99.90
11617;DHT22;5864;52.998;9.068;2023-03-01T03:44:34;-0.20;99.90
11617;DHT22;5864;52.998;9.068;2023-03-01T03:47:22;-0.20;99.90
11617;DHT22;5864;52.998;9.068;2023-03-01T03:50:08;-0.30;99.90
11617;DHT22;5864;52.998;9.068;2023-03-01T03:52:56;-0.20;99.90
11617;DHT22;5864;52.998;9.068;2023-03-01T03:55:42;-0.20;99.90
11617;DHT22;5864;52.998;9.068;2023-03-01T03:58:28;-0.20;99.90
11617;DHT22;5864;52.998;9.068;2023-03-01T04:01:14;-0.20;99.90
11617;DHT22;5864;52.998;9.068;2023-03-01T04:03:59;-0.20;99.90
11617;DHT22;5864;52.998;9.068;2023-03-01T04:06:48;-0.30;99.90
11617;DHT22;5864;52.998;9.068;2023-03-01T04:09:35;-0.30;99.90
11617;DHT22;5864;52.998;9.068;2023-03-01T04:12:20;-0.30;99.90
11617;DHT22;5864;52.998;9.068;2023-03-01T04:15:08;0.00;99.90
11617;DHT22;5864;52.998;9.068;2023-03-01T04:17:57;-0.30;99.90
11617;DHT22;5864;52.998;9.068;2023-03-01T04:20:43;-0.30;99.90
11617;DHT22;5864;52.998;9.068;2023-03-01T04:23:29;-0.40;99.90
11617;DHT22;5864;52.998;9.068;2023-03-01T04:26:16;-0.40;99.90
11617;DHT22;5864;52.998;9.068;2023-03-01T04:29:02;-0.40;99.90
11617;DHT22;5864;52.998;9.068;2023-03-01T04:31:47;-0.40;99.90
11617;DHT22;5864;52.998;9.068;2023-03-01T04:34:34;-0.40;99.90
11617;DHT22;5864;52.998;9.068;2023-03-01T04:37:19;-0.40;99.90
11617;DHT22;5864;52.998;9.068;2023-03-01T04:40:06;-0.40;99.90
11617;DHT22;5864;52.998;9.068;2023-03-01T04:43:02;-0.50;99.90
11617;DHT22;5864;52.998;9.068;2023-03-01T04:45:47;-0.40;99.90
11617;DHT22;5864;52.998;9.068;2023-03-01T04:48:35;-0.50;99.90
11617;DHT22;5864;52.998;9.068;2023-03-01T04:51:21;-0.50;99.90
11617;DHT22;5864;52.998;9.068;2023-03-01T04:54:07;-0.50;99.90
11617;DHT22;5864;52.998;9.068;2023-03-01T04:56:53;-0.40;99.90
11617;DHT22;5864;52.998;9.068;2023-03-01T04:59:40;-0.40;99.90
11617;DHT22;5864;52.998;9.068;2023-03-01T05:02:25;-0.40;99.90
11617;DHT22;5864;52.998;9.068;2023-03-01T05:05:11;-0.40;99.90
11617;DHT22;5864;52.998;9.068;2023-03-01T05:07:58;-0.50;99.90
11617;DHT22;5864;52.998;9.068;2023-03-01T05:10:45;-0.50;99.90
11617;DHT22;5864;52.998;9.068;2023-03-01T05:13:31;-0.60;99.90
11617;DHT22;5864;52.998;9.068;2023-03-01T05:16:18;-0.60;99.90
11617;DHT22;5864;52.998;9.068;2023-03-01T05:19:04;-0.70;99.90
11617;DHT22;5864;52.998;9.068;2023-03-01T05:21:55;-0.70;99.90
11617;DHT22;5864;52.998;9.068;2023-03-01T05:24:47;-0.80;99.90
11617;DHT22;5864;52.998;9.068;2023-03-01T05:27:34;-0.80;99.90
11617;DHT22;5864;52.998;9.068;2023-03-01T05:30:20;-0.80;99.90
11617;DHT22;5864;52.998;9.068;2023-03-01T05:33:07;-0.80;99.90
11617;DHT22;5864;52.998;9.068;2023-03-01T05:35:59;-0.70;99.90
11617;DHT22;5864;52.998;9.068;2023-03-01T05:38:45;-0.80;99.90
11617;DHT22;5864;52.998;9.068;2023-03-01T05:41:30;-0.80;99.90
11617;DHT22;5864;52.998;9.068;2023-03-01T05:44:16;-0.80;99.90
11617;DHT22;5864;52.998;9.068;2023-03-01T05:47:02;-0.80;99.90
11617;DHT22;5864;52.998;9.068;2023-03-01T05:49:49;-0.80;99.90
11617;DHT22;5864;52.998;9.068;2023-03-01T05:52:35;-0.80;99.90
11617;DHT22;5864;52.998;9.068;2023-03-01T05:55:21;-0.80;99.90
11617;DHT22;5864;52.998;9.068;2023-03-01T05:58:09;-0.70;99.90
11617;DHT22;5864;52.998;9.068;2023-03-01T06:00:55;-0.70;99.90
11617;DHT22;5864;52.998;9.068;2023-03-01T06:03:41;-0.70;99.90
11617;DHT22;5864;52.998;9.068;2023-03-01T06:06:28;-0.80;99.90
11617;DHT22;5864;52.998;9.068;2023-03-01T06:09:14;-0.70;99.90
11617;DHT22;5864;52.998;9.068;2023-03-01T06:11:59;-0.70;99.90
11617;DHT22;5864;52.998;9.068;2023-03-01T06:14:45;-0.80;99.90
11617;DHT22;5864;52.998;9.068;2023-03-01T06:17:33;-0.80;99.90
11617;DHT22;5864;52.998;9.068;2023-03-01T06:20:22;-0.80;99.90
11617;DHT22;5864;52.998;9.068;2023-03-01T06:23:10;-0.80;99.90
11617;DHT22;5864;52.998;9.068;2023-03-01T06:25:55;-0.80;99.90
11617;DHT22;5864;52.998;9.068;2023-03-01T06:28:41;-0.80;99.90
11617;DHT22;5864;52.998;9.068;2023-03-01T06:31:26;-0.70;99.90
11617;DHT22;5864;52.998;9.068;2023-03-01T06:34:12;-0.60;99.90
11617;DHT22;5864;52.998;9.068;2023-03-01T06:36:58;-0.60;99.90
11617;DHT22;5864;52.998;9.068;2023-03-01T06:39:45;-0.50;99.90
11617;DHT22;5864;52.998;9.068;2023-03-01T06:42:30;-0.40;99.90
11617;DHT22;5864;52.998;9.068;2023-03-01T06:45:16;-0.40;99.90
11617;DHT22;5864;52.998;9.068;2023-03-01T06:48:03;-0.40;99.90
11617;DHT22;5864;52.998;9.068;2023-03-01T06:50:49;-0.30;99.90
11617;DHT22;5864;52.998;9.068;2023-03-01T06:53:34;-0.30;99.90
11617;DHT22;5864;52.998;9.068;2023-03-01T06:56:21;-0.20;99.90
11617;DHT22;5864;52.998;9.068;2023-03-01T06:59:07;-0.10;99.90
11617;DHT22;5864;52.998;9.068;2023-03-01T07:01:54;0.00;99.90
11617;DHT22;5864;52.998;9.068;2023-03-01T07:04:39;0.10;99.90
11617;DHT22;5864;52.998;9.068;2023-03-01T07:07:25;0.20;99.90
11617;DHT22;5864;52.998;9.068;2023-03-01T07:10:12;0.30;99.90
11617;DHT22;5864;52.998;9.068;2023-03-01T07:12:59;0.40;99.90
11617;DHT22;5864;52.998;9.068;2023-03-01T07:15:44;0.50;99.90
11617;DHT22;5864;52.998;9.068;2023-03-01T07:18:30;0.50;99.90
11617;DHT22;5864;52.998;9.068;2023-03-01T07:21:16;0.30;99.90
11617;DHT22;5864;52.998;9.068;2023-03-01T07:24:02;0.20;99.90
11617;DHT22;5864;52.998;9.068;2023-03-01T07:26:48;0.30;99.90
11617;DHT22;5864;52.998;9.068;2023-03-01T07:29:36;0.60;99.90
11617;DHT22;5864;52.998;9.068;2023-03-01T07:32:22;1.70;99.90
11617;DHT22;5864;52.998;9.068;2023-03-01T07:35:08;3.50;99.90
11617;DHT22;5864;52.998;9.068;2023-03-01T07:37:53;3.90;95.60
11617;DHT22;5864;52.998;9.068;2023-03-01T07:40:39;5.30;99.90
11617;DHT22;5864;52.998;9.068;2023-03-01T07:43:25;4.40;98.10
11617;DHT22;5864;52.998;9.068;2023-03-01T07:46:11;5.80;95.30
11617;DHT22;5864;52.998;9.068;2023-03-01T07:48:57;7.60;80.20
11617;DHT22;5864;52.998;9.068;2023-03-01T07:51:43;8.90;65.60
11617;DHT22;5864;52.998;9.068;2023-03-01T07:54:29;9.00;57.70
11617;DHT22;5864;52.998;9.068;2023-03-01T07:57:14;9.60;46.30
11617;DHT22;5864;52.998;9.068;2023-03-01T07:59:59;9.50;47.10
11617;DHT22;5864;52.998;9.068;2023-03-01T08:02:47;11.00;50.20
11617;DHT22;5864;52.998;9.068;2023-03-01T08:05:32;11.20;45.70
11617;DHT22;5864;52.998;9.068;2023-03-01T08:08:18;12.10;40.90
11617;DHT22;5864;52.998;9.068;2023-03-01T08:11:05;13.00;36.80
11617;DHT22;5864;52.998;9.068;2023-03-01T08:13:50;13.50;36.00
11617;DHT22;5864;52.998;9.068;2023-03-01T08:16:36;14.00;33.20
11617;DHT22;5864;52.998;9.068;2023-03-01T08:19:23;14.20;30.10
11617;DHT22;5864;52.998;9.068;2023-03-01T08:22:09;13.70;25.80
11617;DHT22;5864;52.998;9.068;2023-03-01T08:24:54;13.20;26.60
11617;DHT22;5864;52.998;9.068;2023-03-01T08:27:40;12.40;27.40
11617;DHT22;5864;52.998;9.068;2023-03-01T08:30:26;11.80;32.20
11617;DHT22;5864;52.998;9.068;2023-03-01T08:33:11;11.30;32.60
11617;DHT22;5864;52.998;9.068;2023-03-01T08:36:06;10.70;36.50
11617;DHT22;5864;52.998;9.068;2023-03-01T08:38:52;9.70;38.80
11617;DHT22;5864;52.998;9.068;2023-03-01T08:41:38;8.80;47.60
11617;DHT22;5864;52.998;9.068;2023-03-01T08:44:24;8.50;51.20
11617;DHT22;5864;52.998;9.068;2023-03-01T08:47:10;8.00;52.90
11617;DHT22;5864;52.998;9.068;2023-03-01T08:49:55;7.70;54.70
11617;DHT22;5864;52.998;9.068;2023-03-01T08:52:42;7.50;61.40
11617;DHT22;5864;52.998;9.068;2023-03-01T08:55:28;8.90;68.90
11617;DHT22;5864;52.998;9.068;2023-03-01T08:58:14;7.90;68.30
11617;DHT22;5864;52.998;9.068;2023-03-01T09:00:59;8.00;66.30
11617;DHT22;5864;52.998;9.068;2023-03-01T09:03:45;8.40;64.00
11617;DHT22;5864;52.998;9.068;2023-03-01T09:06:31;10.70;62.40
11617;DHT22;5864;52.998;9.068;2023-03-01T09:09:19;9.30;60.10
11617;DHT22;5864;52.998;9.068;2023-03-01T09:12:05;10.70;59.20
11617;DHT22;5864;52.998;9.068;2023-03-01T09:14:50;11.40;49.40
11617;DHT22;5864;52.998;9.068;2023-03-01T09:17:37;12.10;45.00
11617;DHT22;5864;52.998;9.068;2023-03-01T09:20:22;12.60;43.70
11617;DHT22;5864;52.998;9.068;2023-03-01T09:23:08;13.40;41.30
11617;DHT22;5864;52.998;9.068;2023-03-01T09:25:55;13.70;38.30
11617;DHT22;5864;52.998;9.068;2023-03-01T09:28:41;14.30;34.40
11617;DHT22;5864;52.998;9.068;2023-03-01T09:31:26;15.10;32.00
11617;DHT22;5864;52.998;9.068;2023-03-01T09:34:12;15.70;29.80
11617;DHT22;5864;52.998;9.068;2023-03-01T09:37:00;16.10;31.60
11617;DHT22;5864;52.998;9.068;2023-03-01T09:39:46;16.60;30.00
11617;DHT22;5864;52.998;9.068;2023-03-01T09:42:34;17.10;25.20
11617;DHT22;5864;52.998;9.068;2023-03-01T09:45:28;17.20;23.70
11617;DHT22;5864;52.998;9.068;2023-03-01T09:48:17;16.30;26.30
11617;DHT22;5864;52.998;9.068;2023-03-01T09:51:09;16.80;23.10
11617;DHT22;5864;52.998;9.068;2023-03-01T09:53:57;15.80;15.40
11617;DHT22;5864;52.998;9.068;2023-03-01T09:56:50;14.60;15.00
11617;DHT22;5864;52.998;9.068;2023-03-01T09:59:51;14.30;18.40
11617;DHT22;5864;52.998;9.068;2023-03-01T10:02:41;14.30;15.40
11617;DHT22;5864;52.998;9.068;2023-03-01T10:05:38;15.10;16.00
11617;DHT22;5864;52.998;9.068;2023-03-01T10:08:34;16.10;13.00
11617;DHT22;5864;52.998;9.068;2023-03-01T10:11:24;16.10;12.80
11617;DHT22;5864;52.998;9.068;2023-03-01T10:14:22;17.00;10.40
11617;DHT22;5864;52.998;9.068;2023-03-01T10:17:16;17.10;11.30
11617;DHT22;5864;52.998;9.068;2023-03-01T10:20:15;17.40;11.10
11617;DHT22;5864;52.998;9.068;2023-03-01T10:23:01;17.60;8.60
11617;DHT22;5864;52.998;9.068;2023-03-01T10:25:57;15.70;10.80
11617;DHT22;5864;52.998;9.068;2023-03-01T10:28:57;14.60;14.90
11617;DHT22;5864;52.998;9.068;2023-03-01T10:31:47;15.50;14.90
11617;DHT22;5864;52.998;9.068;2023-03-01T10:34:36;16.40;15.00
11617;DHT22;5864;52.998;9.068;2023-03-01T10:37:21;16.80;12.90
11617;DHT22;5864;52.998;9.068;2023-03-01T10:40:10;16.60;12.20
11617;DHT22;5864;52.998;9.068;2023-03-01T10:42:58;15.90;12.00
11617;DHT22;5864;52.998;9.068;2023-03-01T10:45:45;14.20;15.80
11617;DHT22;5864;52.998;9.068;2023-03-01T10:48:32;14.30;17.70
11617;DHT22;5864;52.998;9.068;2023-03-01T10:51:18;14.80;15.60
11617;DHT22;5864;52.998;9.068;2023-03-01T10:54:06;14.10;17.80
11617;DHT22;5864;52.998;9.068;2023-03-01T10:57:01;12.90;19.90
11617;DHT22;5864;52.998;9.068;2023-03-01T11:00:01;13.30;20.60
11617;DHT22;5864;52.998;9.068;2023-03-01T11:02:48;13.90;20.30
11617;DHT22;5864;52.998;9.068;2023-03-01T11:05:34;13.90;18.80
11617;DHT22;5864;52.998;9.068;2023-03-01T11:08:39;13.90;19.50
11617;DHT22;5864;52.998;9.068;2023-03-01T11:11:30;13.20;21.30
11617;DHT22;5864;52.998;9.068;2023-03-01T11:14:18;12.50;23.00
11617;DHT22;5864;52.998;9.068;2023-03-01T11:17:05;12.10;24.40
11617;DHT22;5864;52.998;9.068;2023-03-01T11:20:05;13.30;23.30
11617;DHT22;5864;52.998;9.068;2023-03-01T11:22:56;13.70;21.70
11617;DHT22;5864;52.998;9.068;2023-03-01T11:25:47;14.00;22.20
11617;DHT22;5864;52.998;9.068;2023-03-01T11:28:37;14.20;22.40
11617;DHT22;5864;52.998;9.068;2023-03-01T11:31:25;12.70;24.90
11617;DHT22;5864;52.998;9.068;2023-03-01T11:34:14;12.70;27.80
11617;DHT22;5864;52.998;9.068;2023-03-01T11:37:10;12.20;26.20
11617;DHT22;5864;52.998;9.068;2023-03-01T11:40:10;11.50;28.00
11617;DHT22;5864;52.998;9.068;2023-03-01T11:43:04;11.90;30.20
11617;DHT22;5864;52.998;9.068;2023-03-01T11:46:07;11.70;29.60
11617;DHT22;5864;52.998;9.068;2023-03-01T11:49:14;9.40;32.80
11617;DHT22;5864;52.998;9.068;2023-03-01T11:52:08;10.90;35.80
11617;DHT22;5864;52.998;9.068;2023-03-01T11:55:17;10.90;38.80
11617;DHT22;5864;52.998;9.068;2023-03-01T11:58:20;11.00;41.20
11617;DHT22;5864;52.998;9.068;2023-03-01T12:01:16;10.30;45.60
11617;DHT22;5864;52.998;9.068;2023-03-01T12:07:34;10.30;48.70
11617;DHT22;5864;52.998;9.068;2023-03-01T12:10:23;10.10;48.10
11617;DHT22;5864;52.998;9.068;2023-03-01T12:13:27;9.90;51.20
11617;DHT22;5864;52.998;9.068;2023-03-01T12:16:34;10.10;51.80
11617;DHT22;5864;52.998;9.068;2023-03-01T12:19:38;10.50;49.30
11617;DHT22;5864;52.998;9.068;2023-03-01T12:22:30;10.50;47.40
11617;DHT22;5864;52.998;9.068;2023-03-01T12:25:22;10.90;49.40
11617;DHT22;5864;52.998;9.068;2023-03-01T12:35:06;11.00;47.80
11617;DHT22;5864;52.998;9.068;2023-03-01T12:38:02;10.60;50.30
11617;DHT22;5864;52.998;9.068;2023-03-01T12:41:11;10.20;53.10
11617;DHT22;5864;52.998;9.068;2023-03-01T12:44:10;10.10;53.30
11617;DHT22;5864;52.998;9.068;2023-03-01T12:47:11;9.90;54.10
11617;DHT22;5864;52.998;9.068;2023-03-01T12:50:03;10.20;53.50
11617;DHT22;5864;52.998;9.068;2023-03-01T12:52:52;10.50;51.30
11617;DHT22;5864;52.998;9.068;2023-03-01T12:55:41;10.60;52.80
11617;DHT22;5864;52.998;9.068;2023-03-01T12:58:31;10.80;53.60
11617;DHT22;5864;52.998;9.068;2023-03-01T13:01:25;11.30;53.40
11617;DHT22;5864;52.998;9.068;2023-03-01T13:04:18;10.50;54.30
11617;DHT22;5864;52.998;9.068;2023-03-01T13:07:27;10.00;57.10
11617;DHT22;5864;52.998;9.068;2023-03-01T13:10:22;10.30;60.60
11617;DHT22;5864;52.998;9.068;2023-03-01T13:13:13;9.70;64.60
11617;DHT22;5864;52.998;9.068;2023-03-01T13:16:38;10.20;65.10
11617;DHT22;5864;52.998;9.068;2023-03-01T13:19:25;10.70;59.80
11617;DHT22;5864;52.998;9.068;2023-03-01T13:22:28;10.10;61.40
11617;DHT22;5864;52.998;9.068;2023-03-01T13:25:17;9.90;67.30
11617;DHT22;5864;52.998;9.068;2023-03-01T13:31:59;10.70;64.00
11617;DHT22;5864;52.998;9.068;2023-03-01T13:34:54;11.60;58.70
11617;DHT22;5864;52.998;9.068;2023-03-01T13:37:40;10.40;64.80
11617;DHT22;5864;52.998;9.068;2023-03-01T13:40:58;10.50;61.70
11617;DHT22;5864;52.998;9.068;2023-03-01T13:43:46;10.40;63.00
11617;DHT22;5864;52.998;9.068;2023-03-01T13:46:33;10.90;60.00
11617;DHT22;5864;52.998;9.068;2023-03-01T13:49:22;11.40;56.50
11617;DHT22;5864;52.998;9.068;2023-03-01T13:52:30;10.70;57.90
11617;DHT22;5864;52.998;9.068;2023-03-01T13:55:20;10.40;57.50
11617;DHT22;5864;52.998;9.068;2023-03-01T13:58:16;10.30;59.60
11617;DHT22;5864;52.998;9.068;2023-03-01T14:01:05;10.50;59.80
11617;DHT22;5864;52.998;9.068;2023-03-01T14:03:50;11.30;61.90
11617;DHT22;5864;52.998;9.068;2023-03-01T14:06:37;10.10;63.80
11617;DHT22;5864;52.998;9.068;2023-03-01T14:09:25;10.40;60.40
11617;DHT22;5864;52.998;9.068;2023-03-01T14:12:23;10.20;62.50
11617;DHT22;5864;52.998;9.068;2023-03-01T14:15:17;10.10;62.40
11617;DHT22;5864;52.998;9.068;2023-03-01T14:18:07;10.10;63.40
11617;DHT22;5864;52.998;9.068;2023-03-01T14:20:53;10.30;61.90
11617;DHT22;5864;52.998;9.068;2023-03-01T14:23:41;10.40;63.20
11617;DHT22;5864;52.998;9.068;2023-03-01T14:26:27;10.40;63.10
11617;DHT22;5864;52.998;9.068;2023-03-01T14:29:34;10.20;65.20
11617;DHT22;5864;52.998;9.068;2023-03-01T14:32:22;10.10;64.60
11617;DHT22;5864;52.998;9.068;2023-03-01T14:35:20;10.50;65.40
11617;DHT22;5864;52.998;9.068;2023-03-01T14:38:20;10.60;64.20
11617;DHT22;5864;52.998;9.068;2023-03-01T14:41:09;10.30;61.00
11617;DHT22;5864;52.998;9.068;2023-03-01T14:43:57;10.30;62.30
11617;DHT22;5864;52.998;9.068;2023-03-01T14:46:44;10.40;65.20
11617;DHT22;5864;52.998;9.068;2023-03-01T14:49:30;10.40;64.50
11617;DHT22;5864;52.998;9.068;2023-03-01T14:52:20;10.60;64.90
11617;DHT22;5864;52.998;9.068;2023-03-01T14:55:13;10.30;67.10
11617;DHT22;5864;52.998;9.068;2023-03-01T14:58:04;10.40;64.30
11617;DHT22;5864;52.998;9.068;2023-03-01T15:00:51;10.50;66.90
11617;DHT22;5864;52.998;9.068;2023-03-01T15:03:41;10.50;64.80
11617;DHT22;5864;52.998;9.068;2023-03-01T15:06:27;10.10;65.30
11617;DHT22;5864;52.998;9.068;2023-03-01T15:09:14;10.10;65.50
11617;DHT22;5864;52.998;9.068;2023-03-01T15:12:00;10.70;66.60
11617;DHT22;5864;52.998;9.068;2023-03-01T15:15:35;10.90;73.60
11617;DHT22;5864;52.998;9.068;2023-03-01T15:18:22;9.90;71.50
11617;DHT22;5864;52.998;9.068;2023-03-01T15:21:16;9.90;72.90
11617;DHT22;5864;52.998;9.068;2023-03-01T15:24:05;10.00;73.20
11617;DHT22;5864;52.998;9.068;2023-03-01T15:26:57;9.90;73.00
11617;DHT22;5864;52.998;9.068;2023-03-01T15:29:52;9.80;74.00
11617;DHT22;5864;52.998;9.068;2023-03-01T15:32:39;9.90;73.80
11617;DHT22;5864;52.998;9.068;2023-03-01T15:35:39;9.80;77.90
11617;DHT22;5864;52.998;9.068;2023-03-01T15:38:34;9.80;78.00
11617;DHT22;5864;52.998;9.068;2023-03-01T15:41:24;9.50;79.00
11617;DHT22;5864;52.998;9.068;2023-03-01T15:44:23;11.40;86.50
11617;DHT22;5864;52.998;9.068;2023-03-01T15:47:23;9.10;92.50
11617;DHT22;5864;52.998;9.068;2023-03-01T15:50:17;9.20;92.80
11617;DHT22;5864;52.998;9.068;2023-03-01T15:53:06;9.10;94.70
11617;DHT22;5864;52.998;9.068;2023-03-01T15:55:55;8.90;97.00
11617;DHT22;5864;52.998;9.068;2023-03-01T15:58:40;8.80;98.30
11617;DHT22;5864;52.998;9.068;2023-03-01T16:01:27;8.80;97.50
11617;DHT22;5864;52.998;9.068;2023-03-01T16:04:14;8.50;99.90
11617;DHT22;5864;52.998;9.068;2023-03-01T16:07:06;8.30;99.90
11617;DHT22;5864;52.998;9.068;2023-03-01T16:09:52;8.30;99.90
11617;DHT22;5864;52.998;9.068;2023-03-01T16:12:37;8.50;99.90
11617;DHT22;5864;52.998;9.068;2023-03-01T16:15:26;8.50;99.90
11617;DHT22;5864;52.998;9.068;2023-03-01T16:18:11;8.60;99.90
11617;DHT22;5864;52.998;9.068;2023-03-01T16:20:58;8.70;99.90
11617;DHT22;5864;52.998;9.068;2023-03-01T16:23:45;8.70;99.90
11617;DHT22;5864;52.998;9.068;2023-03-01T16:26:31;8.60;99.90
11617;DHT22;5864;52.998;9.068;2023-03-01T16:29:17;10.20;99.90
11617;DHT22;5864;52.998;9.068;2023-03-01T16:32:03;9.70;99.90
11617;DHT22;5864;52.998;9.068;2023-03-01T16:34:49;8.20;99.90
11617;DHT22;5864;52.998;9.068;2023-03-01T16:37:35;8.30;99.90
11617;DHT22;5864;52.998;9.068;2023-03-01T16:40:24;8.20;99.90
11617;DHT22;5864;52.998;9.068;2023-03-01T16:43:10;8.80;99.90
11617;DHT22;5864;52.998;9.068;2023-03-01T16:45:55;8.10;99.90
11617;DHT22;5864;52.998;9.068;2023-03-01T16:48:41;8.20;99.90
11617;DHT22;5864;52.998;9.068;2023-03-01T16:51:26;8.10;99.90
11617;DHT22;5864;52.998;9.068;2023-03-01T16:54:14;8.10;99.90
11617;DHT22;5864;52.998;9.068;2023-03-01T16:57:01;7.80;99.90
11617;DHT22;5864;52.998;9.068;2023-03-01T16:59:46;8.90;99.90
11617;DHT22;5864;52.998;9.068;2023-03-01T17:02:32;7.80;99.90
11617;DHT22;5864;52.998;9.068;2023-03-01T17:05:17;7.70;99.90
11617;DHT22;5864;52.998;9.068;2023-03-01T17:08:05;7.40;99.90
11617;DHT22;5864;52.998;9.068;2023-03-01T17:10:50;7.20;99.90
11617;DHT22;5864;52.998;9.068;2023-03-01T17:13:39;7.10;99.90
11617;DHT22;5864;52.998;9.068;2023-03-01T17:16:24;7.40;99.90
11617;DHT22;5864;52.998;9.068;2023-03-01T17:19:11;7.10;99.90
11617;DHT22;5864;52.998;9.068;2023-03-01T17:22:01;7.90;99.90
11617;DHT22;5864;52.998;9.068;2023-03-01T17:24:47;9.40;99.90
11617;DHT22;5864;52.998;9.068;2023-03-01T17:27:33;7.80;99.90
11617;DHT22;5864;52.998;9.068;2023-03-01T17:30:21;7.20;99.90
11617;DHT22;5864;52.998;9.068;2023-03-01T17:33:07;7.00;99.90
11617;DHT22;5864;52.998;9.068;2023-03-01T17:35:53;7.10;99.90
11617;DHT22;5864;52.998;9.068;2023-03-01T17:38:39;7.00;99.90
11617;DHT22;5864;52.998;9.068;2023-03-01T17:41:24;8.80;99.90
11617;DHT22;5864;52.998;9.068;2023-03-01T17:44:10;6.90;99.90
11617;DHT22;5864;52.998;9.068;2023-03-01T17:46:56;6.70;99.90
11617;DHT22;5864;52.998;9.068;2023-03-01T17:49:42;8.40;99.90
11617;DHT22;5864;52.998;9.068;2023-03-01T17:52:28;6.70;99.90
11617;DHT22;5864;52.998;9.068;2023-03-01T17:55:14;6.70;99.90
11617;DHT22;5864;52.998;9.068;2023-03-01T17:58:00;6.70;99.90
11617;DHT22;5864;52.998;9.068;2023-03-01T18:00:45;6.60;99.90
11617;DHT22;5864;52.998;9.068;2023-03-01T18:03:33;6.60;99.90
11617;DHT22;5864;52.998;9.068;2023-03-01T18:06:20;6.50;99.90
11617;DHT22;5864;52.998;9.068;2023-03-01T18:09:10;7.30;99.90
11617;DHT22;5864;52.998;9.068;2023-03-01T18:11:56;6.30;99.90
11617;DHT22;5864;52.998;9.068;2023-03-01T18:14:43;7.50;99.90
11617;DHT22;5864;52.998;9.068;2023-03-01T18:17:28;6.20;99.90
11617;DHT22;5864;52.998;9.068;2023-03-01T18:20:16;6.10;99.90
11617;DHT22;5864;52.998;9.068;2023-03-01T18:23:02;6.00;99.90
11617;DHT22;5864;52.998;9.068;2023-03-01T18:25:48;7.40;99.90